Time;durP1;ratioP1;P1;durP2;ratioP2;P2;SDS_P1;SDS_P2;PMS_P1;PMS_P2;Temp;Humidity;BMP_temperature;BMP_pressure;BME280_temperature;BME280_humidity;BME280_pressure;Samples;Min_cycle;Max_cycle;Signal;HPM_P1;HPM_P2
2021/03/13 00:01:00;;;;;;;0.88;0.70;;;;;;;;;;5137706;27;20208;-55
2021/03/13 00:03:26;;;;;;;1.33;0.70;;;;;;;;;;5102419;27;20188;-55
2021/03/13 00:05:52;;;;;;;1.20;0.70;;;;;;;;;;5087571;28;20185;-55
2021/03/13 00:08:18;;;;;;;1.77;0.70;;;;;;;;;;5116292;28;20173;-55
2021/03/13 00:10:46;;;;;;;1.63;0.75;;;;;;;;;;5111363;28;20196;-55
2021/03/13 00:13:12;;;;;;;1.08;0.60;;;;;;;;;;5111025;27;20185;-55
2021/03/13 00:15:39;;;;;;;1.88;0.70;;;;;;;;;;5119365;27;20195;-55
2021/03/13 00:18:06;;;;;;;0.50;0.50;;;;;;;;;;5111249;27;20181;-55
2021/03/13 00:20:35;;;;;;;1.17;0.50;;;;;;;;;;5106417;28;20190;-55
2021/03/13 00:23:01;;;;;;;1.50;0.80;;;;;;;;;;5125022;27;20504;-55
2021/03/13 00:25:29;;;;;;;0.90;0.50;;;;;;;;;;5095551;28;20284;-55
2021/03/13 00:27:56;;;;;;;0.73;0.50;;;;;;;;;;5116329;28;20177;-55
2021/03/13 00:30:23;;;;;;;1.80;0.40;;;;;;;;;;5103868;28;20490;-55
2021/03/13 00:32:54;;;;;;;0.93;0.50;;;;;;;;;;5095749;28;20197;-55
2021/03/13 00:35:21;;;;;;;0.65;0.40;;;;;;;;;;5095596;28;20182;-54
2021/03/13 00:37:48;;;;;;;0.63;0.40;;;;;;;;;;5120426;27;20188;-55
2021/03/13 00:40:15;;;;;;;0.52;0.52;;;;;;;;;;5081712;28;20564;-55
2021/03/13 00:42:42;;;;;;;1.25;0.60;;;;;;;;;;5116099;28;20169;-55
2021/03/13 00:45:09;;;;;;;0.30;0.30;;;;;;;;;;5096967;28;20264;-55
2021/03/13 00:47:35;;;;;;;0.60;0.60;;;;;;;;;;5092397;28;20587;-55
2021/03/13 00:50:01;;;;;;;0.82;0.40;;;;;;;;;;5104394;28;20189;-54
2021/03/13 00:52:28;;;;;;;1.15;0.50;;;;;;;;;;5128622;27;20460;-54
2021/03/13 00:54:54;;;;;;;0.75;0.57;;;;;;;;;;5114561;27;20173;-55
2021/03/13 00:57:20;;;;;;;1.25;0.50;;;;;;;;;;5094373;28;20166;-55
2021/03/13 00:59:46;;;;;;;0.47;0.45;;;;;;;;;;5115974;28;20181;-55
2021/03/13 01:02:12;;;;;;;0.60;0.60;;;;;;;;;;5102689;28;20292;-55
2021/03/13 01:04:41;;;;;;;1.00;0.40;;;;;;;;;;5108427;28;20177;-55
2021/03/13 01:07:07;;;;;;;0.50;0.50;;;;;;;;;;5095375;28;20178;-55
2021/03/13 01:09:33;;;;;;;1.65;0.40;;;;;;;;;;5104094;27;20180;-55
2021/03/13 01:11:59;;;;;;;0.30;0.20;;;;;;;;;;5114147;27;20227;-55
2021/03/13 01:14:25;;;;;;;0.50;0.50;;;;;;;;;;5113688;28;20189;-55
2021/03/13 01:16:51;;;;;;;0.70;0.50;;;;;;;;;;5114917;28;20237;-55
2021/03/13 01:19:17;;;;;;;1.63;0.47;;;;;;;;;;5121245;27;20552;-55
2021/03/13 01:21:43;;;;;;;0.40;0.40;;;;;;;;;;5106530;27;20656;-55
2021/03/13 01:24:09;;;;;;;0.57;0.40;;;;;;;;;;5123286;27;20448;-55
2021/03/13 01:26:35;;;;;;;0.50;0.50;;;;;;;;;;5108545;28;20216;-55
2021/03/13 01:29:01;;;;;;;0.85;0.17;;;;;;;;;;5134868;27;20207;-55
2021/03/13 01:31:27;;;;;;;0.25;0.25;;;;;;;;;;5130051;27;20589;-55
2021/03/13 01:33:53;;;;;;;0.40;0.40;;;;;;;;;;5109319;28;20189;-55
2021/03/13 01:36:19;;;;;;;0.45;0.40;;;;;;;;;;5093856;28;20567;-55
2021/03/13 01:38:45;;;;;;;0.70;0.40;;;;;;;;;;5121209;27;20177;-55
2021/03/13 01:41:12;;;;;;;0.38;0.38;;;;;;;;;;5107860;28;20264;-55
2021/03/13 01:43:38;;;;;;;0.85;0.43;;;;;;;;;;5094420;28;20209;-55
2021/03/13 01:46:04;;;;;;;0.50;0.45;;;;;;;;;;5094544;28;20174;-55
2021/03/13 01:48:31;;;;;;;0.70;0.40;;;;;;;;;;5095282;28;20186;-55
2021/03/13 01:50:58;;;;;;;0.57;0.38;;;;;;;;;;5113082;28;20197;-55
2021/03/13 01:53:25;;;;;;;0.47;0.38;;;;;;;;;;5118473;27;20187;-55
2021/03/13 01:55:51;;;;;;;0.43;0.20;;;;;;;;;;5112731;27;20170;-55
2021/03/13 01:58:17;;;;;;;0.45;0.45;;;;;;;;;;5123655;27;20466;-55
2021/03/13 02:00:43;;;;;;;0.32;0.32;;;;;;;;;;5129252;27;20196;-55
2021/03/13 02:03:09;;;;;;;0.25;0.25;;;;;;;;;;5114856;28;20185;-55
2021/03/13 02:05:45;;;;;;;0.30;0.30;;;;;;;;;;5101073;28;20196;-55
2021/03/13 02:08:30;;;;;;;0.30;0.30;;;;;;;;;;5100775;28;20211;-55
2021/03/13 02:11:02;;;;;;;0.35;0.35;;;;;;;;;;5107595;27;20291;-54
2021/03/13 02:13:31;;;;;;;0.40;0.30;;;;;;;;;;5119004;27;20181;-54
2021/03/13 02:16:15;;;;;;;0.32;0.32;;;;;;;;;;5113458;28;20458;-54
2021/03/13 02:18:48;;;;;;;0.22;0.22;;;;;;;;;;5113285;28;20544;-54
2021/03/13 02:21:20;;;;;;;0.55;0.32;;;;;;;;;;5108116;27;20185;-54
2021/03/13 02:23:54;;;;;;;0.30;0.25;;;;;;;;;;5096498;28;20174;-54
2021/03/13 02:26:32;;;;;;;0.22;0.22;;;;;;;;;;5107485;28;20173;-54
2021/03/13 02:29:10;;;;;;;0.30;0.30;;;;;;;;;;5114649;28;20184;-54
2021/03/13 02:31:37;;;;;;;0.40;0.30;;;;;;;;;;5115355;27;20203;-52
2021/03/13 02:34:05;;;;;;;0.30;0.30;;;;;;;;;;5106484;28;20197;-52
2021/03/13 02:36:31;;;;;;;2.33;0.32;;;;;;;;;;5094699;28;20184;-54
2021/03/13 02:39:06;;;;;;;0.25;0.25;;;;;;;;;;5111007;28;20195;-54
2021/03/13 02:41:35;;;;;;;0.50;0.30;;;;;;;;;;5108955;28;20607;-54
2021/03/13 02:44:02;;;;;;;0.55;0.40;;;;;;;;;;5133517;28;20625;-54
2021/03/13 02:46:30;;;;;;;1.50;0.30;;;;;;;;;;5120882;28;20613;-54
2021/03/13 02:48:58;;;;;;;1.75;0.30;;;;;;;;;;5120247;27;20639;-54
2021/03/13 02:51:25;;;;;;;0.75;0.52;;;;;;;;;;5111728;28;20600;-54
2021/03/13 02:53:52;;;;;;;0.20;0.20;;;;;;;;;;5112473;27;20703;-54
2021/03/13 02:56:19;;;;;;;0.38;0.30;;;;;;;;;;5108605;28;20188;-54
2021/03/13 02:58:49;;;;;;;0.17;0.17;;;;;;;;;;5113761;27;20230;-54
2021/03/13 03:01:15;;;;;;;0.65;0.28;;;;;;;;;;5097972;28;20640;-54
2021/03/13 03:03:42;;;;;;;0.30;0.22;;;;;;;;;;5097212;28;20184;-55
2021/03/13 03:06:09;;;;;;;0.35;0.35;;;;;;;;;;5098746;28;20265;-54
2021/03/13 03:08:38;;;;;;;1.42;0.32;;;;;;;;;;5097519;28;20181;-54
2021/03/13 03:11:04;;;;;;;0.10;0.10;;;;;;;;;;5106301;28;20205;-54
2021/03/13 03:13:30;;;;;;;0.20;0.20;;;;;;;;;;5117282;27;20789;-55
2021/03/13 03:16:03;;;;;;;0.15;0.15;;;;;;;;;;5120135;27;20172;-54
2021/03/13 03:18:30;;;;;;;0.35;0.20;;;;;;;;;;5111938;27;20181;-54
2021/03/13 03:20:57;;;;;;;2.30;0.30;;;;;;;;;;5097303;28;20222;-54
2021/03/13 03:23:23;;;;;;;0.52;0.20;;;;;;;;;;5102225;28;20180;-54
2021/03/13 03:25:53;;;;;;;0.20;0.20;;;;;;;;;;5114290;28;20214;-54
2021/03/13 03:28:20;;;;;;;0.50;0.28;;;;;;;;;;5116591;28;20222;-54
2021/03/13 03:30:47;;;;;;;0.82;0.38;;;;;;;;;;5118259;27;20474;-54
2021/03/13 03:33:13;;;;;;;0.30;0.28;;;;;;;;;;5117990;28;20220;-54
2021/03/13 03:35:39;;;;;;;0.98;0.28;;;;;;;;;;5110949;28;20177;-54
2021/03/13 03:38:07;;;;;;;0.77;0.30;;;;;;;;;;5102220;28;20634;-54
2021/03/13 03:40:34;;;;;;;1.65;0.20;;;;;;;;;;5099380;28;20671;-54
2021/03/13 03:43:06;;;;;;;0.35;0.35;;;;;;;;;;5127947;27;20184;-54
2021/03/13 03:45:33;;;;;;;0.20;0.20;;;;;;;;;;5119355;27;20203;-54
2021/03/13 03:48:02;;;;;;;0.57;0.20;;;;;;;;;;5129129;27;20185;-54
2021/03/13 03:50:30;;;;;;;0.13;0.13;;;;;;;;;;5132990;27;20463;-54
2021/03/13 03:52:56;;;;;;;0.55;0.30;;;;;;;;;;5109656;28;20231;-54
2021/03/13 03:55:23;;;;;;;0.10;0.10;;;;;;;;;;5097522;28;20548;-54
2021/03/13 03:57:50;;;;;;;0.47;0.30;;;;;;;;;;5100134;28;20576;-54
2021/03/13 04:00:17;;;;;;;0.38;0.38;;;;;;;;;;5095979;28;20188;-54
2021/03/13 04:02:44;;;;;;;0.30;0.20;;;;;;;;;;5120098;27;20184;-54
2021/03/13 04:05:10;;;;;;;0.20;0.10;;;;;;;;;;5121308;27;20185;-54
2021/03/13 04:07:37;;;;;;;0.45;0.40;;;;;;;;;;5115873;28;20222;-54
2021/03/13 04:10:08;;;;;;;1.05;0.22;;;;;;;;;;5114992;28;20597;-54
2021/03/13 04:12:34;;;;;;;0.75;0.25;;;;;;;;;;5109504;27;20248;-54
2021/03/13 04:15:01;;;;;;;0.30;0.20;;;;;;;;;;5116374;28;20169;-54
2021/03/13 04:17:28;;;;;;;0.10;0.10;;;;;;;;;;5115329;28;20177;-54
2021/03/13 04:19:54;;;;;;;0.20;0.20;;;;;;;;;;5115146;28;20190;-54
2021/03/13 04:22:22;;;;;;;0.32;0.10;;;;;;;;;;5121361;27;20181;-54
2021/03/13 04:24:49;;;;;;;0.57;0.20;;;;;;;;;;5115688;28;20188;-54
2021/03/13 04:27:16;;;;;;;0.20;0.20;;;;;;;;;;5099345;28;20273;-54
2021/03/13 04:29:42;;;;;;;0.38;0.20;;;;;;;;;;5095814;28;20185;-54
2021/03/13 04:32:08;;;;;;;0.55;0.40;;;;;;;;;;5095780;28;20201;-54
2021/03/13 04:34:34;;;;;;;1.55;0.40;;;;;;;;;;5095304;28;20235;-54
2021/03/13 04:37:01;;;;;;;0.20;0.20;;;;;;;;;;5112518;27;20605;-54
2021/03/13 04:39:28;;;;;;;0.70;0.30;;;;;;;;;;5115570;28;20264;-54
2021/03/13 04:41:54;;;;;;;0.52;0.15;;;;;;;;;;5098328;28;20196;-54
2021/03/13 04:44:21;;;;;;;0.98;0.28;;;;;;;;;;5095697;28;20263;-54
2021/03/13 04:46:48;;;;;;;0.30;0.30;;;;;;;;;;5110352;28;20604;-55
2021/03/13 04:49:14;;;;;;;0.10;0.10;;;;;;;;;;5096023;28;20280;-54
2021/03/13 04:51:40;;;;;;;0.30;0.17;;;;;;;;;;5100814;27;20642;-54
2021/03/13 04:54:08;;;;;;;0.20;0.10;;;;;;;;;;5112659;27;20185;-54
2021/03/13 04:56:34;;;;;;;0.22;0.22;;;;;;;;;;5106295;28;20902;-54
2021/03/13 04:59:00;;;;;;;0.10;0.10;;;;;;;;;;5100305;28;20351;-54
2021/03/13 05:01:26;;;;;;;1.20;0.35;;;;;;;;;;5115431;28;20193;-54
2021/03/13 05:03:52;;;;;;;0.30;0.30;;;;;;;;;;5115869;28;20173;-54
2021/03/13 05:06:18;;;;;;;0.20;0.20;;;;;;;;;;5115657;27;20177;-54
2021/03/13 05:08:44;;;;;;;0.68;0.30;;;;;;;;;;5112112;28;20200;-54
2021/03/13 05:11:11;;;;;;;0.30;0.30;;;;;;;;;;5104264;28;20576;-54
2021/03/13 05:13:37;;;;;;;0.55;0.22;;;;;;;;;;5131189;27;20577;-54
2021/03/13 05:16:03;;;;;;;0.30;0.10;;;;;;;;;;5133342;27;20255;-54
2021/03/13 05:18:29;;;;;;;0.40;0.20;;;;;;;;;;5115070;28;20265;-54
2021/03/13 05:20:55;;;;;;;0.25;0.25;;;;;;;;;;5109157;27;20193;-55
2021/03/13 05:23:22;;;;;;;0.40;0.20;;;;;;;;;;5115418;28;20189;-54
2021/03/13 05:25:48;;;;;;;0.20;0.20;;;;;;;;;;5109753;28;20422;-54
2021/03/13 05:28:14;;;;;;;0.20;0.20;;;;;;;;;;5106628;28;20195;-54
2021/03/13 05:30:41;;;;;;;0.10;0.10;;;;;;;;;;5114646;28;20664;-54
2021/03/13 05:33:07;;;;;;;0.30;0.20;;;;;;;;;;5108052;27;20188;-54
2021/03/13 05:35:33;;;;;;;0.20;0.20;;;;;;;;;;5108712;28;20207;-54
2021/03/13 05:37:59;;;;;;;0.52;0.20;;;;;;;;;;5113591;28;20189;-54
2021/03/13 05:40:25;;;;;;;0.13;0.13;;;;;;;;;;5109661;28;20205;-54
2021/03/13 05:42:51;;;;;;;0.50;0.28;;;;;;;;;;5094239;28;20177;-54
2021/03/13 05:45:18;;;;;;;0.10;0.10;;;;;;;;;;5094617;28;20182;-54
2021/03/13 05:47:46;;;;;;;2.78;0.20;;;;;;;;;;5103544;27;20212;-55
2021/03/13 05:50:13;;;;;;;0.45;0.10;;;;;;;;;;5100382;27;20181;-54
2021/03/13 05:52:39;;;;;;;0.20;0.20;;;;;;;;;;5098103;28;20229;-54
2021/03/13 05:55:07;;;;;;;0.22;0.17;;;;;;;;;;5108805;28;20186;-54
2021/03/13 05:57:34;;;;;;;0.20;0.10;;;;;;;;;;5103298;27;20178;-54
2021/03/13 06:00:00;;;;;;;0.20;0.20;;;;;;;;;;5107775;28;20501;-54
2021/03/13 06:02:26;;;;;;;0.20;0.13;;;;;;;;;;5109469;27;20520;-54
2021/03/13 06:04:53;;;;;;;0.55;0.20;;;;;;;;;;5107789;28;20562;-54
2021/03/13 06:07:21;;;;;;;0.38;0.20;;;;;;;;;;5105215;28;20200;-54
2021/03/13 06:09:50;;;;;;;0.13;0.13;;;;;;;;;;5093990;28;20561;-54
2021/03/13 06:12:16;;;;;;;1.58;0.20;;;;;;;;;;5105703;27;20200;-54
2021/03/13 06:14:42;;;;;;;0.98;0.30;;;;;;;;;;5134606;27;20183;-54
2021/03/13 06:17:08;;;;;;;0.45;0.20;;;;;;;;;;5131195;27;20180;-54
2021/03/13 06:19:47;;;;;;;0.20;0.20;;;;;;;;;;5096940;28;20579;-54
2021/03/13 06:22:32;;;;;;;2.03;0.17;;;;;;;;;;5114325;28;20203;-54
2021/03/13 06:25:16;;;;;;;1.63;0.30;;;;;;;;;;5094980;28;20448;-55
2021/03/13 06:27:43;;;;;;;1.10;0.13;;;;;;;;;;5113914;28;20201;-54
2021/03/13 06:30:12;;;;;;;2.65;0.20;;;;;;;;;;5115651;28;20193;-54
2021/03/13 06:32:39;;;;;;;0.17;0.10;;;;;;;;;;5113964;28;20294;-54
2021/03/13 06:35:19;;;;;;;0.85;0.22;;;;;;;;;;5113727;28;20594;-54
2021/03/13 06:37:45;;;;;;;0.60;0.30;;;;;;;;;;5095579;28;20185;-54
2021/03/13 06:40:24;;;;;;;0.15;0.10;;;;;;;;;;5106531;28;20180;-54
2021/03/13 06:42:51;;;;;;;1.30;0.15;;;;;;;;;;5109454;28;20180;-55
2021/03/13 06:45:19;;;;;;;1.98;0.10;;;;;;;;;;5103737;28;20177;-54
2021/03/13 06:47:45;;;;;;;0.22;0.10;;;;;;;;;;5110571;28;20193;-55
2021/03/13 06:50:17;;;;;;;1.08;0.30;;;;;;;;;;5115553;28;20191;-55
2021/03/13 06:52:45;;;;;;;0.30;0.10;;;;;;;;;;5118562;28;20236;-55
2021/03/13 06:55:18;;;;;;;6.50;0.30;;;;;;;;;;5118762;28;20235;-55
2021/03/13 06:57:47;;;;;;;0.35;0.10;;;;;;;;;;5107164;28;20169;-55
2021/03/13 07:00:24;;;;;;;0.17;0.17;;;;;;;;;;5114089;28;20180;-55
2021/03/13 07:02:50;;;;;;;0.95;0.20;;;;;;;;;;5125554;28;20180;-55
2021/03/13 07:05:16;;;;;;;0.10;0.10;;;;;;;;;;5112476;28;20184;-55
2021/03/13 07:07:42;;;;;;;8.07;0.40;;;;;;;;;;5110388;28;20218;-55
2021/03/13 07:10:09;;;;;;;0.35;0.20;;;;;;;;;;5112215;28;20224;-55
2021/03/13 07:12:36;;;;;;;0.45;0.20;;;;;;;;;;5117656;28;20216;-55
2021/03/13 07:15:21;;;;;;;0.10;0.10;;;;;;;;;;5134170;28;20203;-55
2021/03/13 07:17:51;;;;;;;3.40;0.30;;;;;;;;;;5117758;28;20184;-55
2021/03/13 07:20:18;;;;;;;1.17;0.40;;;;;;;;;;5113422;28;20166;-55
2021/03/13 07:22:44;;;;;;;3.10;0.38;;;;;;;;;;5113253;28;20343;-55
2021/03/13 07:25:11;;;;;;;1.38;0.20;;;;;;;;;;5093993;28;20177;-54
2021/03/13 07:27:40;;;;;;;4.57;0.60;;;;;;;;;;5095351;28;20216;-54
2021/03/13 07:30:11;;;;;;;3.78;0.50;;;;;;;;;;5093040;28;20572;-54
2021/03/13 07:32:40;;;;;;;3.08;0.50;;;;;;;;;;5106497;28;20205;-54
2021/03/13 07:35:09;;;;;;;4.07;0.68;;;;;;;;;;5114235;28;20293;-54
2021/03/13 07:37:37;;;;;;;1.40;0.40;;;;;;;;;;5096485;28;20209;-54
2021/03/13 07:40:04;;;;;;;3.15;0.55;;;;;;;;;;5098532;28;20182;-54
2021/03/13 07:42:30;;;;;;;3.95;0.47;;;;;;;;;;5115882;27;20192;-54
2021/03/13 07:44:56;;;;;;;1.55;0.57;;;;;;;;;;5115464;28;20201;-54
2021/03/13 07:47:23;;;;;;;2.20;0.50;;;;;;;;;;5117544;28;20181;-54
2021/03/13 07:49:49;;;;;;;1.70;0.70;;;;;;;;;;5117228;28;20177;-54
2021/03/13 07:52:18;;;;;;;1.48;0.40;;;;;;;;;;5116786;28;20702;-54
2021/03/13 07:54:45;;;;;;;1.90;0.68;;;;;;;;;;5111103;28;20453;-54
2021/03/13 07:57:12;;;;;;;3.15;0.57;;;;;;;;;;5112694;28;20169;-55
2021/03/13 07:59:48;;;;;;;3.08;0.60;;;;;;;;;;5114945;28;20181;-55
2021/03/13 08:02:30;;;;;;;4.20;0.77;;;;;;;;;;5117356;28;20615;-55
2021/03/13 08:04:59;;;;;;;0.70;0.55;;;;;;;;;;5116527;28;20206;-55
2021/03/13 08:07:26;;;;;;;1.45;0.45;;;;;;;;;;5106215;28;20221;-55
2021/03/13 08:09:52;;;;;;;1.40;0.38;;;;;;;;;;5115151;28;20184;-55
2021/03/13 08:12:38;;;;;;;0.68;0.40;;;;;;;;;;5111520;27;20200;-55
2021/03/13 08:15:09;;;;;;;1.75;0.55;;;;;;;;;;5128521;27;20182;-55
2021/03/13 08:17:39;;;;;;;2.47;0.50;;;;;;;;;;5096500;28;20177;-55
2021/03/13 08:20:07;;;;;;;4.30;0.50;;;;;;;;;;5111991;28;20176;-55
2021/03/13 08:22:33;;;;;;;3.65;0.68;;;;;;;;;;5096430;28;20214;-55
2021/03/13 08:24:59;;;;;;;1.23;0.50;;;;;;;;;;5096819;28;20177;-55
2021/03/13 08:27:45;;;;;;;1.60;0.50;;;;;;;;;;5109491;27;20190;-55
2021/03/13 08:30:11;;;;;;;1.13;0.60;;;;;;;;;;5116139;27;20572;-55
2021/03/13 08:32:56;;;;;;;1.10;0.50;;;;;;;;;;5121409;27;20207;-55
2021/03/13 08:35:30;;;;;;;3.17;0.60;;;;;;;;;;5106114;28;20181;-55
2021/03/13 08:37:56;;;;;;;0.80;0.32;;;;;;;;;;5095648;28;20492;-55
2021/03/13 08:40:26;;;;;;;2.03;0.60;;;;;;;;;;5097958;28;20181;-55
2021/03/13 08:42:52;;;;;;;1.15;0.43;;;;;;;;;;5116234;28;20570;-55
2021/03/13 08:45:19;;;;;;;3.05;0.73;;;;;;;;;;5103772;27;20439;-55
2021/03/13 08:47:48;;;;;;;0.20;0.20;;;;;;;;;;5121850;27;20605;-51
2021/03/13 08:50:34;;;;;;;1.00;0.63;;;;;;;;;;5116170;28;20602;-53
2021/03/13 08:53:20;;;;;;;0.60;0.40;;;;;;;;;;5108395;28;20297;-53
2021/03/13 08:55:46;;;;;;;2.25;0.52;;;;;;;;;;5111083;28;20184;-53
2021/03/13 08:58:32;;;;;;;0.47;0.32;;;;;;;;;;5112292;28;20188;-53
2021/03/13 09:01:13;;;;;;;2.38;0.40;;;;;;;;;;5126982;27;20187;-53
2021/03/13 09:03:44;;;;;;;3.58;0.68;;;;;;;;;;5128822;27;20200;-53
2021/03/13 09:06:10;;;;;;;1.27;0.50;;;;;;;;;;5087620;28;20174;-53
2021/03/13 09:08:36;;;;;;;3.58;0.38;;;;;;;;;;5100103;27;20257;-53
2021/03/13 09:11:03;;;;;;;1.70;0.57;;;;;;;;;;5111087;28;20283;-53
2021/03/13 09:13:29;;;;;;;1.55;0.65;;;;;;;;;;5118695;27;20527;-53
2021/03/13 09:15:54;;;;;;;0.70;0.43;;;;;;;;;;5110192;28;20234;-53
2021/03/13 09:18:20;;;;;;;1.92;0.70;;;;;;;;;;5115701;28;20169;-53
2021/03/13 09:20:46;;;;;;;0.82;0.50;;;;;;;;;;5111473;28;20180;-53
2021/03/13 09:23:12;;;;;;;1.90;0.70;;;;;;;;;;5105665;28;20210;-53
2021/03/13 09:25:39;;;;;;;1.58;0.55;;;;;;;;;;5095722;28;20265;-53
2021/03/13 09:28:05;;;;;;;3.90;0.90;;;;;;;;;;5116099;27;20461;-53
2021/03/13 09:30:35;;;;;;;1.90;0.80;;;;;;;;;;5135835;27;20275;-53
2021/03/13 09:33:01;;;;;;;2.15;0.85;;;;;;;;;;5119018;27;20456;-53
2021/03/13 09:35:28;;;;;;;2.47;0.88;;;;;;;;;;5104025;28;20176;-53
2021/03/13 09:37:54;;;;;;;3.67;0.93;;;;;;;;;;5104118;27;20204;-53
2021/03/13 09:40:24;;;;;;;1.98;1.10;;;;;;;;;;5118147;27;20256;-53
2021/03/13 09:42:51;;;;;;;2.22;1.10;;;;;;;;;;5122711;27;20284;-53
2021/03/13 09:45:21;;;;;;;2.28;1.08;;;;;;;;;;5111080;27;20205;-53
2021/03/13 09:47:48;;;;;;;2.90;1.10;;;;;;;;;;5104196;27;20588;-53
2021/03/13 09:50:14;;;;;;;6.32;1.10;;;;;;;;;;5109744;28;20204;-53
2021/03/13 09:52:42;;;;;;;6.00;1.40;;;;;;;;;;5103211;28;20214;-53
2021/03/13 09:55:21;;;;;;;11.90;1.60;;;;;;;;;;5108078;28;20178;-53
2021/03/13 09:57:48;;;;;;;11.00;2.80;;;;;;;;;;5106640;27;20181;-53
2021/03/13 10:00:23;;;;;;;23.75;4.68;;;;;;;;;;5111572;27;20195;-53
2021/03/13 10:02:49;;;;;;;23.20;5.75;;;;;;;;;;5109759;27;20579;-53
2021/03/13 10:05:16;;;;;;;29.75;7.47;;;;;;;;;;5106974;28;20189;-53
2021/03/13 10:07:43;;;;;;;42.47;10.13;;;;;;;;;;5096175;28;20177;-53
2021/03/13 10:10:10;;;;;;;56.88;12.85;;;;;;;;;;5112680;27;20182;-53
2021/03/13 10:12:37;;;;;;;55.20;13.23;;;;;;;;;;5122898;27;20606;-52
2021/03/13 10:15:12;;;;;;;65.03;13.88;;;;;;;;;;5118298;27;20229;-52
2021/03/13 10:17:58;;;;;;;67.20;15.95;;;;;;;;;;5119579;27;20180;-53
2021/03/13 10:20:25;;;;;;;63.38;14.77;;;;;;;;;;5107809;27;20192;-53
2021/03/13 10:22:51;;;;;;;59.47;15.07;;;;;;;;;;5119308;27;20246;-53
2021/03/13 10:25:17;;;;;;;65.47;15.27;;;;;;;;;;5110890;28;20189;-53
2021/03/13 10:27:44;;;;;;;69.38;16.13;;;;;;;;;;5127272;27;20188;-53
2021/03/13 10:30:11;;;;;;;58.20;14.55;;;;;;;;;;5133952;27;20263;-53
2021/03/13 10:32:38;;;;;;;55.67;14.88;;;;;;;;;;5129555;27;20300;-53
2021/03/13 10:35:12;;;;;;;58.95;15.32;;;;;;;;;;5124671;27;20580;-53
2021/03/13 10:37:45;;;;;;;44.20;12.88;;;;;;;;;;5112097;28;20182;-53
2021/03/13 10:40:30;;;;;;;55.67;13.13;;;;;;;;;;5096129;28;20184;-53
2021/03/13 10:43:14;;;;;;;42.28;12.77;;;;;;;;;;5106236;28;20189;-53
2021/03/13 10:45:41;;;;;;;46.85;11.70;;;;;;;;;;5106272;28;20487;-53
2021/03/13 10:48:08;;;;;;;36.83;11.07;;;;;;;;;;5121696;28;20188;-53
2021/03/13 10:50:38;;;;;;;38.75;10.75;;;;;;;;;;5125566;28;20192;-53
2021/03/13 10:53:23;;;;;;;36.22;10.77;;;;;;;;;;5120743;28;20191;-53
2021/03/13 10:55:55;;;;;;;35.83;10.57;;;;;;;;;;5108916;28;20214;-53
2021/03/13 10:58:28;;;;;;;35.03;10.40;;;;;;;;;;5107529;28;20173;-53
2021/03/13 11:00:55;;;;;;;35.40;9.18;;;;;;;;;;5103051;28;20210;-53
2021/03/13 11:03:21;;;;;;;26.67;8.35;;;;;;;;;;5113335;28;20184;-53
2021/03/13 11:05:48;;;;;;;28.50;9.15;;;;;;;;;;5129207;28;20556;-53
2021/03/13 11:08:15;;;;;;;31.95;10.00;;;;;;;;;;5113804;28;20272;-53
2021/03/13 11:10:41;;;;;;;55.97;15.32;;;;;;;;;;5113448;28;20350;-53
2021/03/13 11:13:07;;;;;;;69.00;19.15;;;;;;;;;;5113354;27;20177;-53
2021/03/13 11:15:33;;;;;;;262.08;81.82;;;;;;;;;;5110991;27;20188;-53
2021/03/13 11:17:59;;;;;;;236.65;75.60;;;;;;;;;;5128019;27;20188;-53
2021/03/13 11:20:26;;;;;;;200.70;64.15;;;;;;;;;;5127762;27;20215;-53
2021/03/13 11:22:52;;;;;;;174.00;55.80;;;;;;;;;;5097508;28;20178;-53
2021/03/13 11:25:18;;;;;;;116.38;39.53;;;;;;;;;;5098255;28;20203;-53
2021/03/13 11:27:44;;;;;;;111.00;36.63;;;;;;;;;;5119304;27;20221;-53
2021/03/13 11:30:11;;;;;;;85.00;32.08;;;;;;;;;;5124825;27;20208;-53
2021/03/13 11:32:40;;;;;;;90.05;32.33;;;;;;;;;;5122078;27;20217;-53
2021/03/13 11:35:07;;;;;;;94.50;32.67;;;;;;;;;;5109391;27;20265;-53
2021/03/13 11:37:33;;;;;;;79.15;31.80;;;;;;;;;;5102086;27;20272;-53
2021/03/13 11:39:59;;;;;;;87.18;34.30;;;;;;;;;;5104711;27;20608;-53
2021/03/13 11:42:28;;;;;;;89.90;34.10;;;;;;;;;;5121372;27;20269;-53
2021/03/13 11:44:55;;;;;;;99.50;36.10;;;;;;;;;;5123225;27;20763;-53
2021/03/13 11:47:21;;;;;;;95.97;35.80;;;;;;;;;;5125764;27;20222;-53
2021/03/13 11:49:47;;;;;;;141.27;43.58;;;;;;;;;;5124238;27;20180;-53
2021/03/13 11:52:16;;;;;;;150.00;45.28;;;;;;;;;;5117980;27;20208;-53
2021/03/13 11:54:42;;;;;;;171.30;48.47;;;;;;;;;;5098660;28;20190;-52
2021/03/13 11:57:08;;;;;;;151.10;43.90;;;;;;;;;;5111913;27;20181;-52
2021/03/13 11:59:34;;;;;;;157.48;44.53;;;;;;;;;;5117059;27;20211;-53
2021/03/13 12:02:00;;;;;;;132.60;42.17;;;;;;;;;;5116844;28;20216;-53
2021/03/13 12:04:26;;;;;;;138.77;40.65;;;;;;;;;;5116075;28;20189;-54
2021/03/13 12:06:52;;;;;;;141.32;41.65;;;;;;;;;;5116532;28;20196;-53
2021/03/13 12:09:18;;;;;;;133.60;41.78;;;;;;;;;;5115999;28;20234;-53
2021/03/13 12:11:44;;;;;;;119.85;37.28;;;;;;;;;;5107434;28;20197;-53
2021/03/13 12:14:10;;;;;;;120.22;38.85;;;;;;;;;;5116671;28;20655;-53
2021/03/13 12:16:36;;;;;;;108.60;34.97;;;;;;;;;;5116404;28;20471;-53
2021/03/13 12:19:02;;;;;;;101.97;33.67;;;;;;;;;;5115839;28;20185;-53
2021/03/13 12:21:28;;;;;;;111.53;34.45;;;;;;;;;;5115935;28;20188;-53
2021/03/13 12:23:54;;;;;;;92.22;33.88;;;;;;;;;;5088446;28;20239;-53
2021/03/13 12:26:20;;;;;;;98.60;32.53;;;;;;;;;;5103904;28;20594;-53
2021/03/13 12:28:50;;;;;;;99.40;31.55;;;;;;;;;;5095887;28;20235;-53
2021/03/13 12:31:16;;;;;;;82.05;30.02;;;;;;;;;;5095799;28;20216;-53
2021/03/13 12:33:42;;;;;;;71.90;26.75;;;;;;;;;;5095880;28;20180;-53
2021/03/13 12:36:08;;;;;;;58.78;24.27;;;;;;;;;;5107658;27;20174;-53
2021/03/13 12:38:34;;;;;;;66.40;24.95;;;;;;;;;;5107694;28;20181;-53
2021/03/13 12:41:00;;;;;;;58.42;22.48;;;;;;;;;;5110801;28;20479;-53
2021/03/13 12:43:27;;;;;;;61.67;22.90;;;;;;;;;;5115619;28;20558;-53
2021/03/13 12:45:53;;;;;;;63.50;21.45;;;;;;;;;;5112436;27;20202;-53
2021/03/13 12:48:19;;;;;;;54.28;20.40;;;;;;;;;;5112729;27;20185;-53
2021/03/13 12:50:45;;;;;;;48.67;19.20;;;;;;;;;;5136375;27;20214;-53
2021/03/13 12:53:11;;;;;;;55.78;20.33;;;;;;;;;;5122641;27;20213;-54
2021/03/13 12:55:37;;;;;;;54.45;19.23;;;;;;;;;;5114840;28;20184;-53
2021/03/13 12:58:03;;;;;;;52.15;18.80;;;;;;;;;;5113347;27;20185;-53
2021/03/13 13:00:29;;;;;;;51.55;18.77;;;;;;;;;;5109841;28;20177;-53
2021/03/13 13:02:55;;;;;;;44.83;17.80;;;;;;;;;;5114455;27;20445;-53
2021/03/13 13:05:21;;;;;;;43.20;16.98;;;;;;;;;;5115493;28;20181;-53
2021/03/13 13:07:49;;;;;;;48.45;17.83;;;;;;;;;;5115187;28;20491;-53
2021/03/13 13:10:16;;;;;;;42.15;16.63;;;;;;;;;;5106986;28;20173;-53
2021/03/13 13:12:42;;;;;;;39.33;15.93;;;;;;;;;;5105749;27;20200;-53
2021/03/13 13:15:09;;;;;;;39.85;15.38;;;;;;;;;;5111385;28;20288;-53
2021/03/13 13:17:35;;;;;;;39.88;15.55;;;;;;;;;;5097680;28;20177;-53
2021/03/13 13:20:01;;;;;;;34.58;15.40;;;;;;;;;;5115286;28;20187;-54
2021/03/13 13:22:27;;;;;;;32.35;14.50;;;;;;;;;;5111723;28;20185;-54
2021/03/13 13:24:53;;;;;;;43.38;15.60;;;;;;;;;;5094875;28;20345;-54
2021/03/13 13:27:19;;;;;;;37.10;14.98;;;;;;;;;;5111400;28;20631;-54
2021/03/13 13:29:45;;;;;;;40.13;14.38;;;;;;;;;;5108891;28;20181;-54
2021/03/13 13:32:11;;;;;;;35.45;13.50;;;;;;;;;;5094246;28;20202;-54
2021/03/13 13:34:37;;;;;;;35.05;13.80;;;;;;;;;;5103940;28;20196;-54
2021/03/13 13:37:03;;;;;;;28.17;12.25;;;;;;;;;;5110126;28;20189;-54
2021/03/13 13:39:29;;;;;;;30.63;12.45;;;;;;;;;;5094709;28;20178;-54
2021/03/13 13:41:56;;;;;;;29.98;11.75;;;;;;;;;;5107586;27;20522;-53
2021/03/13 13:44:22;;;;;;;30.20;12.63;;;;;;;;;;5114369;27;20177;-53
2021/03/13 13:46:48;;;;;;;32.55;11.70;;;;;;;;;;5095179;28;20472;-53
2021/03/13 13:49:14;;;;;;;36.05;12.13;;;;;;;;;;5111766;28;20254;-54
2021/03/13 13:51:40;;;;;;;24.13;10.07;;;;;;;;;;5115272;27;20215;-54
2021/03/13 13:54:06;;;;;;;24.33;10.35;;;;;;;;;;5113867;28;20208;-54
2021/03/13 13:56:32;;;;;;;26.25;10.15;;;;;;;;;;5105549;28;20178;-55
2021/03/13 13:58:58;;;;;;;31.88;10.88;;;;;;;;;;5124705;27;20195;-54
2021/03/13 14:01:27;;;;;;;28.45;10.07;;;;;;;;;;5125186;27;20209;-55
2021/03/13 14:03:53;;;;;;;25.58;9.80;;;;;;;;;;5109950;27;20588;-58
2021/03/13 14:06:19;;;;;;;20.08;9.23;;;;;;;;;;5093153;28;20185;-54
2021/03/13 14:08:45;;;;;;;23.02;8.95;;;;;;;;;;5114510;28;20448;-54
2021/03/13 14:11:11;;;;;;;21.00;7.97;;;;;;;;;;5103219;28;20214;-54
2021/03/13 14:13:37;;;;;;;18.55;6.82;;;;;;;;;;5129273;27;20263;-54
2021/03/13 14:16:03;;;;;;;21.27;7.82;;;;;;;;;;5133808;27;20164;-54
2021/03/13 14:18:29;;;;;;;14.80;7.65;;;;;;;;;;5123239;27;20185;-53
2021/03/13 14:20:55;;;;;;;18.95;7.50;;;;;;;;;;5115744;27;20456;-53
2021/03/13 14:23:21;;;;;;;15.65;7.10;;;;;;;;;;5103897;27;20205;-53
2021/03/13 14:25:47;;;;;;;23.95;7.40;;;;;;;;;;5100577;28;20602;-53
2021/03/13 14:28:13;;;;;;;16.20;6.80;;;;;;;;;;5116563;27;20168;-53
2021/03/13 14:30:39;;;;;;;15.70;5.88;;;;;;;;;;5134827;27;20216;-52
2021/03/13 14:33:05;;;;;;;14.85;6.53;;;;;;;;;;5114686;27;20233;-52
2021/03/13 14:35:31;;;;;;;15.25;6.60;;;;;;;;;;5100290;28;20315;-52
2021/03/13 14:37:57;;;;;;;13.18;6.30;;;;;;;;;;5100597;28;20627;-52